createdAt,value
2022-12-31T00:03:01.333Z,75.66
2022-12-31T00:10:14.889Z,75.81
2022-12-31T00:13:30.129Z,75.83
2022-12-31T00:16:56.010Z,75.81
2022-12-31T00:19:42.121Z,75.74
2022-12-31T00:39:56.710Z,76.18
2022-12-31T00:42:26.525Z,76.29
2022-12-31T00:44:53.950Z,76.32
2022-12-31T00:54:41.457Z,76.67
2022-12-31T00:57:29.316Z,76.85
2022-12-31T01:00:15.744Z,76.79
2022-12-31T01:03:01.376Z,77.09
2022-12-31T01:14:40.080Z,77.56
2022-12-31T01:17:07.589Z,77.65
2022-12-31T01:19:34.470Z,77.80
2022-12-31T01:22:01.275Z,77.85
2022-12-31T01:24:28.119Z,78.04
2022-12-31T01:26:57.814Z,78.13
2022-12-31T01:29:27.215Z,78.15
2022-12-31T01:32:02.589Z,78.23
2022-12-31T01:34:29.405Z,78.42
2022-12-31T01:36:56.558Z,78.41
2022-12-31T01:39:25.193Z,78.55
2022-12-31T01:41:52.048Z,78.67
2022-12-31T01:44:44.815Z,78.77
2022-12-31T01:47:16.747Z,78.72
2022-12-31T01:49:56.649Z,78.97
2022-12-31T01:52:23.551Z,79.07
2022-12-31T01:54:55.286Z,79.21
2022-12-31T01:57:24.963Z,79.23
2022-12-31T01:59:56.141Z,79.32
2022-12-31T02:02:28.111Z,79.42
2022-12-31T02:04:56.704Z,79.31
2022-12-31T02:07:24.892Z,79.39
2022-12-31T02:09:59.693Z,79.60
2022-12-31T02:12:32.862Z,79.59
2022-12-31T02:14:59.781Z,79.68
2022-12-31T02:17:47.121Z,79.59
2022-12-31T02:20:55.323Z,79.85
2022-12-31T02:23:40.458Z,79.68
2022-12-31T02:26:14.721Z,79.86
2022-12-31T02:28:42.692Z,80.01
2022-12-31T02:31:17.039Z,80.11
2022-12-31T02:34:04.777Z,80.08
2022-12-31T02:36:41.953Z,80.22
2022-12-31T02:39:18.348Z,80.10
2022-12-31T02:41:51.115Z,80.18
2022-12-31T02:44:28.089Z,80.33
2022-12-31T02:47:09.777Z,80.37
2022-12-31T02:49:39.228Z,80.48
2022-12-31T02:52:11.773Z,80.57
2022-12-31T02:54:48.868Z,80.45
2022-12-31T02:57:21.611Z,80.60
2022-12-31T03:00:07.139Z,80.52
2022-12-31T03:02:36.515Z,80.77
2022-12-31T03:05:03.659Z,80.67
2022-12-31T03:07:31.949Z,80.66
2022-12-31T03:09:58.906Z,80.86
2022-12-31T03:12:46.243Z,80.80
2022-12-31T03:15:20.694Z,80.78
2022-12-31T03:17:50.719Z,80.89
2022-12-31T03:20:36.524Z,80.84
2022-12-31T03:23:04.443Z,80.94
2022-12-31T03:25:49.432Z,80.93
2022-12-31T03:28:20.106Z,81.12
2022-12-31T03:30:48.512Z,81.19
2022-12-31T03:33:15.827Z,81.32
2022-12-31T03:35:43.665Z,81.45
2022-12-31T03:38:10.944Z,81.46
2022-12-31T03:40:48.455Z,81.40
2022-12-31T03:43:15.430Z,81.35
2022-12-31T03:45:42.442Z,81.25
2022-12-31T03:48:10.119Z,81.43
2022-12-31T03:50:36.995Z,81.34
2022-12-31T03:53:04.047Z,81.37
2022-12-31T03:55:30.976Z,81.27
2022-12-31T03:57:57.844Z,81.34
2022-12-31T04:00:24.865Z,81.48
2022-12-31T04:02:52.117Z,81.51
2022-12-31T04:05:18.978Z,81.46
2022-12-31T04:07:46.189Z,81.45
2022-12-31T04:10:14.457Z,81.58
2022-12-31T04:12:41.478Z,81.42
2022-12-31T04:15:09.284Z,81.59
2022-12-31T04:17:36.257Z,81.36
2022-12-31T04:20:03.408Z,81.48
2022-12-31T04:22:30.392Z,81.52
2022-12-31T04:24:57.120Z,81.61
2022-12-31T04:27:24.074Z,81.55
2022-12-31T04:29:50.855Z,81.36
2022-12-31T04:32:17.859Z,81.53
2022-12-31T04:34:44.780Z,81.52
2022-12-31T04:37:11.558Z,81.67
2022-12-31T04:39:38.418Z,81.69
2022-12-31T04:42:05.307Z,81.72
2022-12-31T04:44:34.390Z,81.66
2022-12-31T04:47:01.692Z,81.53
2022-12-31T04:49:28.554Z,81.65
2022-12-31T04:51:55.396Z,81.73
2022-12-31T04:54:22.302Z,81.57
2022-12-31T04:56:49.099Z,81.76
2022-12-31T04:59:15.935Z,81.63
2022-12-31T05:01:42.749Z,81.73
2022-12-31T05:04:09.629Z,81.86
2022-12-31T05:06:36.436Z,81.77
2022-12-31T05:09:03.351Z,81.69
2022-12-31T05:11:30.247Z,81.84
2022-12-31T05:13:57.035Z,81.63
2022-12-31T05:16:24.049Z,81.88
2022-12-31T05:18:50.967Z,81.62
2022-12-31T05:21:20.955Z,81.63
2022-12-31T05:23:48.193Z,81.66
2022-12-31T05:26:15.001Z,81.58
2022-12-31T05:28:41.846Z,81.60
2022-12-31T05:31:08.742Z,81.86
2022-12-31T05:33:35.535Z,81.89
2022-12-31T05:36:02.520Z,81.83
2022-12-31T05:38:29.433Z,81.77
2022-12-31T05:41:06.669Z,81.77
2022-12-31T05:43:34.046Z,81.81
2022-12-31T05:46:01.691Z,81.80
2022-12-31T05:48:28.631Z,81.90
2022-12-31T05:50:55.548Z,81.85
2022-12-31T05:53:22.351Z,81.72
2022-12-31T05:55:50.084Z,81.94
2022-12-31T05:58:17.052Z,81.81
2022-12-31T06:00:43.913Z,81.89
2022-12-31T06:03:10.878Z,82.00
2022-12-31T06:05:42.092Z,82.05
2022-12-31T06:08:09.736Z,81.81
2022-12-31T06:10:36.591Z,81.89
2022-12-31T06:13:03.452Z,81.95
2022-12-31T06:15:30.560Z,81.88
2022-12-31T06:17:57.446Z,81.86
2022-12-31T06:20:24.161Z,81.86
2022-12-31T06:22:50.986Z,81.79
2022-12-31T06:25:17.763Z,81.75
2022-12-31T06:27:44.632Z,81.74
2022-12-31T06:30:11.686Z,81.79
2022-12-31T06:32:40.182Z,81.82
2022-12-31T06:35:07.209Z,81.68
2022-12-31T06:37:34.007Z,81.60
2022-12-31T06:40:01.041Z,81.63
2022-12-31T06:42:29.000Z,81.71
2022-12-31T06:44:56.336Z,81.65
2022-12-31T06:47:23.366Z,81.62
2022-12-31T06:49:50.210Z,81.39
2022-12-31T06:52:16.959Z,81.38
2022-12-31T06:54:43.922Z,81.39
2022-12-31T06:57:10.869Z,81.41
2022-12-31T06:59:37.764Z,81.25
2022-12-31T07:02:27.931Z,81.51
2022-12-31T07:05:04.042Z,81.36
2022-12-31T07:07:46.255Z,81.59
2022-12-31T07:10:31.909Z,81.59
2022-12-31T07:13:16.856Z,81.50
2022-12-31T07:15:43.954Z,81.56
2022-12-31T07:18:29.964Z,81.49
2022-12-31T07:20:56.947Z,81.63
2022-12-31T07:23:24.359Z,81.85
2022-12-31T07:25:55.641Z,81.89
2022-12-31T07:28:31.620Z,81.76
2022-12-31T07:31:06.391Z,81.56
2022-12-31T07:33:40.066Z,81.69
2022-12-31T07:36:11.784Z,81.75
2022-12-31T07:38:57.106Z,81.77
2022-12-31T07:41:42.774Z,81.80
2022-12-31T07:44:25.030Z,81.85
2022-12-31T07:46:55.394Z,81.75
2022-12-31T07:49:22.997Z,81.92
2022-12-31T07:51:51.347Z,82.07
2022-12-31T07:54:18.346Z,81.84
2022-12-31T07:56:45.522Z,81.97
2022-12-31T07:59:31.286Z,81.89
2022-12-31T08:02:16.620Z,81.92
2022-12-31T08:05:01.983Z,82.07
2022-12-31T08:07:35.117Z,82.21
2022-12-31T08:10:02.032Z,82.21
2022-12-31T08:12:32.275Z,82.13
2022-12-31T08:14:59.511Z,82.10
2022-12-31T08:17:26.498Z,82.24
2022-12-31T08:19:53.528Z,82.26
2022-12-31T08:22:41.679Z,82.20
2022-12-31T08:25:19.364Z,82.25
2022-12-31T08:28:05.091Z,82.43
2022-12-31T08:30:37.131Z,82.49
2022-12-31T08:33:10.249Z,82.24
2022-12-31T08:35:40.138Z,82.28
2022-12-31T08:38:09.714Z,82.54
2022-12-31T08:40:45.816Z,82.41
2022-12-31T08:43:31.540Z,82.45
2022-12-31T08:45:59.661Z,82.43
2022-12-31T08:48:38.077Z,82.44
2022-12-31T08:51:05.496Z,82.78
2022-12-31T08:53:32.971Z,82.42
2022-12-31T08:56:13.171Z,82.69
2022-12-31T08:59:00.815Z,82.83
2022-12-31T09:01:31.631Z,82.70
2022-12-31T09:04:07.857Z,82.65
2022-12-31T09:06:40.503Z,82.75
2022-12-31T09:09:26.688Z,83.02
2022-12-31T09:12:10.802Z,82.72
2022-12-31T09:14:40.488Z,82.70
2022-12-31T09:17:15.468Z,82.74
2022-12-31T09:19:42.290Z,82.99
2022-12-31T09:22:09.805Z,82.99
2022-12-31T09:24:36.787Z,82.84
2022-12-31T09:27:27.523Z,83.00
2022-12-31T09:30:03.496Z,82.98
2022-12-31T09:32:30.395Z,82.86
2022-12-31T09:35:10.725Z,82.97
2022-12-31T09:37:51.611Z,83.12
2022-12-31T09:40:18.416Z,83.33
2022-12-31T09:42:54.366Z,83.28
2022-12-31T09:45:21.631Z,83.28
2022-12-31T09:47:57.669Z,82.88
2022-12-31T09:50:24.534Z,83.06
2022-12-31T09:53:19.956Z,83.13
2022-12-31T09:55:56.333Z,83.04
2022-12-31T09:58:31.508Z,83.17
2022-12-31T10:01:07.927Z,83.20
2022-12-31T10:03:34.811Z,83.17
2022-12-31T10:06:14.341Z,83.22
2022-12-31T10:08:41.152Z,83.43
2022-12-31T10:11:26.215Z,83.29
2022-12-31T10:14:04.747Z,83.33
2022-12-31T10:16:50.638Z,83.55
2022-12-31T10:19:35.993Z,83.37
2022-12-31T10:22:08.821Z,83.51
2022-12-31T10:24:41.653Z,83.47
2022-12-31T10:27:26.835Z,83.46
2022-12-31T10:30:12.792Z,83.66
2022-12-31T10:32:39.562Z,83.61
2022-12-31T10:35:09.125Z,83.60
2022-12-31T10:37:43.465Z,83.62
2022-12-31T10:40:30.265Z,83.84
2022-12-31T10:43:23.670Z,83.73
2022-12-31T10:45:50.514Z,83.88
2022-12-31T10:48:36.668Z,83.87
2022-12-31T10:51:22.089Z,84.03
2022-12-31T10:53:54.688Z,83.93
2022-12-31T10:56:24.090Z,83.83
2022-12-31T10:58:50.892Z,83.95
2022-12-31T11:01:43.052Z,83.84
2022-12-31T11:04:18.664Z,84.11
2022-12-31T11:06:54.099Z,84.01
2022-12-31T11:09:20.901Z,84.17
2022-12-31T11:11:47.675Z,84.13
2022-12-31T11:14:24.364Z,84.32
2022-12-31T11:16:57.192Z,84.34
2022-12-31T11:19:39.005Z,84.24
2022-12-31T11:22:05.823Z,84.40
2022-12-31T11:24:32.585Z,84.28
2022-12-31T11:27:32.834Z,84.28
2022-12-31T11:29:59.571Z,84.68
2022-12-31T11:32:32.495Z,84.81
2022-12-31T11:35:02.260Z,84.58
2022-12-31T11:37:44.060Z,84.54
2022-12-31T11:40:13.831Z,84.44
2022-12-31T11:42:49.605Z,84.55
2022-12-31T11:45:50.273Z,84.69
2022-12-31T11:48:31.970Z,84.62
2022-12-31T11:51:20.271Z,84.81
2022-12-31T11:54:05.645Z,84.79
2022-12-31T11:56:38.107Z,84.83
2022-12-31T11:59:12.075Z,84.89
2022-12-31T12:01:41.246Z,85.05
2022-12-31T12:04:09.692Z,85.10
2022-12-31T12:06:36.448Z,85.04
2022-12-31T12:09:05.779Z,85.10
2022-12-31T12:11:35.154Z,85.05
2022-12-31T12:14:17.647Z,85.23
2022-12-31T12:16:44.518Z,85.31
2022-12-31T12:19:17.097Z,85.32
2022-12-31T12:21:45.694Z,85.41
2022-12-31T12:24:21.266Z,85.44
2022-12-31T12:26:48.501Z,85.40
2022-12-31T12:29:20.499Z,85.55
2022-12-31T12:31:56.643Z,85.37
2022-12-31T12:34:25.009Z,85.46
2022-12-31T12:36:51.913Z,85.38
2022-12-31T12:39:20.919Z,85.47
2022-12-31T12:41:47.755Z,85.38
2022-12-31T12:44:16.189Z,85.47
2022-12-31T12:46:48.399Z,85.49
2022-12-31T12:49:24.782Z,85.50
2022-12-31T12:51:51.636Z,85.40
2022-12-31T12:54:33.686Z,85.52
2022-12-31T12:57:09.933Z,85.42
2022-12-31T12:59:36.741Z,85.47
2022-12-31T13:02:12.936Z,85.47
2022-12-31T13:04:51.908Z,85.43
2022-12-31T13:17:48.287Z,85.53
2022-12-31T13:20:25.628Z,85.57
2022-12-31T13:23:02.065Z,85.66
2022-12-31T13:32:17.019Z,85.80
2022-12-31T13:35:39.657Z,85.94
2022-12-31T13:38:21.955Z,85.97
2022-12-31T13:40:51.934Z,86.02
2022-12-31T13:43:21.790Z,85.98
2022-12-31T13:45:54.057Z,86.31
2022-12-31T13:48:31.519Z,86.32
2022-12-31T13:51:27.981Z,86.36
2022-12-31T13:54:24.527Z,86.21
2022-12-31T13:57:46.630Z,86.07
2022-12-31T14:01:46.096Z,86.09
2022-12-31T14:08:35.130Z,86.02
2022-12-31T14:11:35.936Z,86.07
2022-12-31T14:14:29.785Z,86.32
2022-12-31T14:17:17.152Z,86.22
2022-12-31T14:20:07.191Z,86.27
2022-12-31T14:22:43.218Z,86.35
2022-12-31T14:25:20.230Z,86.18
2022-12-31T14:27:48.208Z,86.33
2022-12-31T14:30:37.032Z,86.44
2022-12-31T14:33:22.244Z,86.47
2022-12-31T14:36:12.479Z,86.49
2022-12-31T14:38:59.496Z,86.54
2022-12-31T14:41:45.137Z,86.41
2022-12-31T14:44:14.541Z,86.53
2022-12-31T14:47:00.628Z,86.58
2022-12-31T14:49:27.353Z,86.59
2022-12-31T14:51:54.228Z,86.55
2022-12-31T14:54:28.937Z,86.45
2022-12-31T14:57:11.829Z,86.60
2022-12-31T14:59:40.655Z,86.45
2022-12-31T15:02:26.634Z,86.45
2022-12-31T15:05:03.477Z,86.51
2022-12-31T15:07:40.835Z,86.43
2022-12-31T15:10:07.758Z,86.46
2022-12-31T15:13:06.174Z,86.40
2022-12-31T15:15:48.740Z,86.30
2022-12-31T15:18:31.751Z,86.28
2022-12-31T15:21:13.101Z,86.19
2022-12-31T15:23:43.894Z,86.18
2022-12-31T15:26:22.447Z,86.08
2022-12-31T15:29:00.434Z,86.10
2022-12-31T15:31:28.079Z,85.94
2022-12-31T15:33:59.459Z,86.06
2022-12-31T15:36:33.560Z,85.93
2022-12-31T15:39:07.419Z,85.93
2022-12-31T15:42:02.954Z,85.87
2022-12-31T15:44:39.735Z,85.81
2022-12-31T15:47:15.563Z,85.69
2022-12-31T15:49:44.910Z,85.81
2022-12-31T15:52:14.334Z,85.64
2022-12-31T15:54:45.685Z,85.71
2022-12-31T15:57:31.230Z,85.66
2022-12-31T16:00:02.060Z,85.64
2022-12-31T16:02:31.610Z,85.60
2022-12-31T16:04:58.610Z,85.63
2022-12-31T16:07:27.210Z,85.45
2022-12-31T16:09:57.196Z,85.62
2022-12-31T16:12:30.945Z,85.52
2022-12-31T16:15:00.153Z,85.47
2022-12-31T16:18:22.812Z,85.53
2022-12-31T16:20:53.894Z,85.48
2022-12-31T16:23:22.357Z,85.49
2022-12-31T16:25:50.810Z,85.43
2022-12-31T16:28:23.007Z,85.42
2022-12-31T16:31:04.096Z,85.38
2022-12-31T16:33:31.826Z,85.33
2022-12-31T16:36:00.163Z,85.36
2022-12-31T16:38:34.274Z,85.30
2022-12-31T16:41:01.156Z,85.27
2022-12-31T16:43:29.670Z,85.22
2022-12-31T16:46:07.671Z,85.31
2022-12-31T16:48:34.643Z,85.27
2022-12-31T16:51:01.645Z,85.21
2022-12-31T16:53:32.071Z,85.14
2022-12-31T16:56:04.333Z,85.14
2022-12-31T16:58:33.178Z,85.15
2022-12-31T17:01:05.920Z,85.12
2022-12-31T17:03:33.100Z,85.02
2022-12-31T17:06:06.286Z,85.11
2022-12-31T17:08:41.366Z,85.09
2022-12-31T17:11:28.396Z,85.10
2022-12-31T17:14:05.886Z,85.01
2022-12-31T17:16:37.343Z,85.08
2022-12-31T17:19:04.384Z,85.06
2022-12-31T17:21:32.540Z,85.01
2022-12-31T17:24:01.599Z,85.07
2022-12-31T17:26:30.991Z,85.16
2022-12-31T17:28:59.313Z,85.19
2022-12-31T17:31:29.168Z,85.29
2022-12-31T17:34:11.467Z,85.40
2022-12-31T17:36:39.522Z,85.45
2022-12-31T17:39:17.233Z,85.51
2022-12-31T17:41:47.655Z,85.60
2022-12-31T17:44:19.845Z,85.78
2022-12-31T17:46:48.043Z,85.70
2022-12-31T17:49:15.149Z,85.75
2022-12-31T17:51:47.305Z,85.80
2022-12-31T17:54:15.084Z,85.80
2022-12-31T17:56:42.283Z,85.82
2022-12-31T17:59:14.156Z,85.68
2022-12-31T18:01:41.185Z,85.75
2022-12-31T18:04:14.851Z,85.68
2022-12-31T18:06:41.753Z,85.70
2022-12-31T18:09:08.909Z,85.75
2022-12-31T18:11:37.306Z,85.69
2022-12-31T18:14:04.098Z,85.68
2022-12-31T18:16:31.022Z,85.71
2022-12-31T18:18:59.045Z,85.73
2022-12-31T18:21:31.949Z,85.60
2022-12-31T18:26:27.493Z,85.53
2022-12-31T18:28:54.558Z,85.52
2022-12-31T18:31:29.525Z,85.54
2022-12-31T18:33:57.665Z,85.61
2022-12-31T18:36:25.264Z,85.69
2022-12-31T18:38:52.566Z,85.68
2022-12-31T18:41:27.271Z,85.74
2022-12-31T18:43:54.577Z,85.79
2022-12-31T18:46:22.618Z,85.85
2022-12-31T18:48:49.841Z,85.85
2022-12-31T18:51:23.042Z,85.86
2022-12-31T18:53:52.094Z,86.00
2022-12-31T18:56:19.665Z,85.87
2022-12-31T18:58:48.298Z,85.85
2022-12-31T19:01:35.475Z,85.87
2022-12-31T19:04:04.266Z,85.91
2022-12-31T19:06:31.095Z,85.91
2022-12-31T19:09:00.901Z,85.87
2022-12-31T19:11:28.145Z,85.87
2022-12-31T19:13:55.088Z,85.93
2022-12-31T19:16:21.970Z,85.91
2022-12-31T19:18:50.253Z,86.10
2022-12-31T19:21:18.693Z,85.99
2022-12-31T19:23:45.912Z,85.75
2022-12-31T19:26:16.605Z,85.71
2022-12-31T19:28:44.036Z,85.50
2022-12-31T19:31:12.508Z,85.46
2022-12-31T19:33:42.318Z,85.47
2022-12-31T19:36:16.952Z,85.51
2022-12-31T19:38:44.992Z,85.46
2022-12-31T19:41:19.238Z,85.56
2022-12-31T19:43:46.920Z,85.51
2022-12-31T19:46:17.598Z,85.54
2022-12-31T19:48:46.551Z,85.47
2022-12-31T19:51:18.145Z,85.44
2022-12-31T19:53:45.514Z,85.33
2022-12-31T19:56:13.496Z,85.45
2022-12-31T19:58:40.389Z,85.34
2022-12-31T20:01:08.896Z,85.35
2022-12-31T20:03:35.797Z,85.45
2022-12-31T20:06:08.031Z,85.41
2022-12-31T20:08:35.856Z,85.47
2022-12-31T20:11:18.766Z,85.41
2022-12-31T20:13:46.514Z,85.48
2022-12-31T20:16:17.701Z,85.38
2022-12-31T20:18:45.799Z,85.33
2022-12-31T20:21:14.416Z,85.27
2022-12-31T20:23:41.223Z,85.29
2022-12-31T20:26:08.444Z,85.27
2022-12-31T20:28:36.147Z,85.23
2022-12-31T20:31:11.691Z,85.27
2022-12-31T20:33:39.072Z,85.16
2022-12-31T20:36:07.163Z,85.22
2022-12-31T20:38:34.731Z,85.19
2022-12-31T20:41:02.463Z,85.27
2022-12-31T20:43:30.976Z,85.21
2022-12-31T20:45:57.855Z,85.16
2022-12-31T20:48:24.826Z,85.15
2022-12-31T20:50:58.063Z,85.10
2022-12-31T20:53:24.952Z,85.04
2022-12-31T20:55:51.828Z,85.14
2022-12-31T20:58:18.668Z,85.09
2022-12-31T21:00:49.154Z,85.08
2022-12-31T21:03:54.144Z,85.24
2022-12-31T21:06:08.305Z,85.21
2022-12-31T21:08:35.500Z,85.11
2022-12-31T21:11:23.092Z,85.07
2022-12-31T21:13:50.332Z,85.03
2022-12-31T21:16:17.733Z,85.09
2022-12-31T21:18:45.031Z,85.00
2022-12-31T21:21:12.240Z,85.04
2022-12-31T21:23:39.096Z,84.94
2022-12-31T21:26:07.575Z,84.90
2022-12-31T21:28:35.693Z,84.96
2022-12-31T21:31:07.117Z,84.96
2022-12-31T21:33:43.698Z,84.99
2022-12-31T21:36:11.394Z,85.00
2022-12-31T21:38:41.132Z,85.05
2022-12-31T21:41:35.045Z,85.14
2022-12-31T21:44:03.310Z,85.14
2022-12-31T21:46:30.294Z,85.06
2022-12-31T21:48:57.900Z,85.10
2022-12-31T21:51:24.805Z,85.03
2022-12-31T21:53:51.612Z,85.09
2022-12-31T21:56:20.673Z,85.08
2022-12-31T21:59:12.414Z,85.14
2022-12-31T22:01:58.567Z,85.11
2022-12-31T22:05:00.272Z,84.96
2022-12-31T22:07:12.562Z,85.08
2022-12-31T22:09:39.391Z,84.94
2022-12-31T22:12:06.432Z,85.01
2022-12-31T22:14:33.200Z,85.07
2022-12-31T22:17:00.018Z,84.85
2022-12-31T22:19:26.825Z,84.93
2022-12-31T22:21:53.590Z,84.77
2022-12-31T22:24:20.467Z,84.70
2022-12-31T22:26:47.237Z,84.66
2022-12-31T22:29:14.209Z,84.69
2022-12-31T22:31:41.148Z,84.77
2022-12-31T22:34:08.040Z,84.66
2022-12-31T22:36:34.860Z,84.56
2022-12-31T22:39:01.794Z,84.57
2022-12-31T22:41:28.812Z,84.51
2022-12-31T22:44:03.052Z,84.47
2022-12-31T22:46:33.126Z,84.41
2022-12-31T22:49:01.475Z,84.34
2022-12-31T22:51:54.720Z,84.28
2022-12-31T22:54:16.207Z,84.23
2022-12-31T22:56:43.564Z,84.10
2022-12-31T22:59:11.455Z,84.20
2022-12-31T23:01:40.647Z,84.08
2022-12-31T23:04:11.818Z,83.96
2022-12-31T23:06:45.109Z,84.06
2022-12-31T23:09:31.199Z,83.97
2022-12-31T23:11:59.000Z,83.89
2022-12-31T23:14:48.368Z,83.92
2022-12-31T23:17:35.420Z,83.75
2022-12-31T23:20:21.712Z,83.81
2022-12-31T23:23:09.205Z,83.62
2022-12-31T23:25:51.037Z,83.54
2022-12-31T23:28:21.359Z,83.32
2022-12-31T23:30:50.906Z,83.35
2022-12-31T23:33:19.922Z,83.39
2022-12-31T23:35:47.307Z,83.31
2022-12-31T23:38:19.903Z,83.22
2022-12-31T23:40:46.848Z,83.17
2022-12-31T23:43:21.251Z,83.02
2022-12-31T23:45:52.178Z,83.03
2022-12-31T23:48:19.701Z,83.00
2022-12-31T23:51:26.649Z,82.91
2022-12-31T23:53:57.416Z,83.00
2022-12-31T23:56:24.528Z,82.82
2022-12-31T23:58:55.356Z,82.79
